KDWU

Details ICAO KDWU
Name ASHLAND RGNL
Region United States
Timezone America/New_York (UTC-5.0)
Plans Departing 0
Arriving 4
Stats Elevation 546 ft / 166 m (AMSL)
Location 38.554547° -82.738043°
Runways 1
Magnetic Variation 7.041° W
Sunrise 2017-12-12 12:40:50 UTC / 2017-12-12 07:40:50 Local
Sunset 2017-12-12 22:11:37 UTC / 2017-12-12 17:11:37 Local
Advertisement - Login to hide

Runways

ID Width Length Bearing (true) Bearing (mag) Surface Threshold Offset Overrun Length
10 98 ft / 30 m 5,590 ft / 1,704 m 98.20° 105.24° Asphalt 0 ft / 0 m 0 ft / 0 m
28 98 ft / 30 m 5,590 ft / 1,704 m 278.21° 285.25° Asphalt 0 ft / 0 m 0 ft / 0 m

Approach Navaids

Runway Type Ident Frequency Range Bearing (true) Bearing (mag) Slope Elevation
10 Localiser IAJY 108.90 MHz 18 nm / 33 km 98.20° 105.24° - 546 ft / 166 m (AMSL)

Map

Weather


0- 5 10 15 20 25 30 35+ Temperature / ° C

Clouds and Precipitation
Forecast for 2017-12-13 00:00 UTC. Updated 8 minutes ago

Ground ~20,000 ft ~40,000 ft Winds

METAR

KDWU 122256Z AUTO VRB06KT 10SM BKN070 M04/M08 A2996 RMK AO2 SNE36 SLP153 P0000 T10441078 FZRANO

TAF

Not found

Frequencies

Recorded 132.42 MHz AWOS 3
Clearance 121.70 MHz CLNC DEL
Unicom 122.80 MHz CTAF/UNICOM
Approach 128.40 MHz HUNTINGTON APP/DEP
Warning: Do not use this data for real-world aviation or navigation. No guarantee of current accuracy is given.